Evans City, Pennsylvania
Current Conditions -  °F | °C
As of 10:15 PM on Saturday 25 Oct 2014 (Local Time) from KBTP Reporting Station
Clear Clear  
Wind Chill: 59°   Ceiling: Unl
Heat Index: 59°   Visibility: 10mi
Dew Point: 43°   Wind: 12mph
Humidity: 55%   Direction: 270°W
Pressure: 29.76"   Gusts: 24mph
Location:  40.77°N, 80.06°W
Report Text: KBTP 260215Z AUTO 27010G21KT 10SM CLR 15/06 A2976 RMK AO1
Loading
Personal Weather Stations






























Interactive Weather Map
Tropical Storm Tracking
New forecast layout! Learn more

10-Day Weather Forecast

Advertisements
Track Severe Weather on mobile